Pagrindinis puslapis
METAR-TAF:

METAR-TAF

Oro uostai :

Gvidonija, Italija

platuma: 42-00N, ilguma: 012-44E, Aukštis: 88 m

Dabartinis oras

Ataskaita buvo paskelbta 9 valandos ir 12 minutes, ne 17:55 UTC
Vėjas 6 kt iš Pietų/Pietvakarių
Temperatūra 27°C
Drėgmė 79%
Slėgis 1018 hPa
Matomumas 10 km arba daugiau
Mažai debesys ne aukštis 3000 ft

METAR: LIRG 241755Z 21006KT 9999 FEW030 27/23 Q1018 RMK BKN SCT090 MON CLD CIME VAR RAPID VIS MIN 9999 BLU

Laikas: 05:07 (03:07 UTC)

Prognozė

Ataskaita buvo paskelbta 13 valandos ir 7 minutes, ne 14:00 UTC
Prognozė galioja nuo 24 metu 15 UTC su 24 metu 24 UTC
Vėjas 10 kt iš Pietvakarių
Matomumas 10 km arba daugiau
Išsisklaidę debesys ne aukštis 3000 ft
Laikinai
nuo 24 metu 15 UTC su 24 metu 18 UTC
Mažai debesys ne aukštis 2000 ft, Liūtiniai kamuoliniai debesys.
perkūnija, lietus

TAF: LIRG 241400Z 2415/2424 23010KT 9999 SCT030 TEMPO 2415/2418 TSRA FEW020CB

Orai ataskaitas ir orų prognozės (METAR, TAF).

turimą stotys yra geltonos ir raudonos taškus žemėlapyje.

Perkelti pele per norėdami pamatyti stoties vardą.

Tada spustelėkite, norėdami matyti oro stebėjimo ir prognozės.

Norėdami pakeisti žemėlapį: spustelėkite ant žalios mygtukų su juodo kryžiaus žemyn,; žalią mygtuką su brūkšneliu, jei norite nutolinti; arba žalių rodyklių gretimoms žemėlapius.


METAR-TAF: